sensor_id;sensor_type;location;lat;lon;timestamp;pressure;altitude;pressure_sealevel;temperature;humidity
59391;BME280;53405;57.012;40.984;2023-04-19T00:00:04;101159.56;;;6.93;46.08
59391;BME280;53405;57.012;40.984;2023-04-19T00:02:37;101182.16;;;6.62;47.07
59391;BME280;53405;57.012;40.984;2023-04-19T00:05:06;101182.75;;;6.65;47.34
59391;BME280;53405;57.012;40.984;2023-04-19T00:07:34;101181.72;;;6.45;47.86
59391;BME280;53405;57.012;40.984;2023-04-19T00:10:02;101154.34;;;6.49;47.35
59391;BME280;53405;57.012;40.984;2023-04-19T00:12:30;101180.22;;;6.75;46.61
59391;BME280;53405;57.012;40.984;2023-04-19T00:14:58;101185.22;;;6.78;46.39
59391;BME280;53405;57.012;40.984;2023-04-19T00:17:26;101186.50;;;6.84;45.50
59391;BME280;53405;57.012;40.984;2023-04-19T00:19:54;101185.41;;;6.86;45.69
59391;BME280;53405;57.012;40.984;2023-04-19T00:22:21;101174.00;;;6.87;45.24
59391;BME280;53405;57.012;40.984;2023-04-19T00:24:49;101179.97;;;6.78;46.42
59391;BME280;53405;57.012;40.984;2023-04-19T00:27:17;101174.06;;;6.65;46.66
59391;BME280;53405;57.012;40.984;2023-04-19T00:29:45;101179.31;;;6.54;47.22
59391;BME280;53405;57.012;40.984;2023-04-19T00:32:13;101184.44;;;6.55;47.68
59391;BME280;53405;57.012;40.984;2023-04-19T00:34:41;101178.28;;;6.45;48.07
59391;BME280;53405;57.012;40.984;2023-04-19T00:37:09;101180.75;;;6.46;47.26
59391;BME280;53405;57.012;40.984;2023-04-19T00:39:38;101185.28;;;6.44;47.36
59391;BME280;53405;57.012;40.984;2023-04-19T00:42:06;101162.00;;;6.30;47.75
59391;BME280;53405;57.012;40.984;2023-04-19T00:44:34;101187.81;;;6.35;47.57
59391;BME280;53405;57.012;40.984;2023-04-19T00:47:02;101185.06;;;6.36;47.75
59391;BME280;53405;57.012;40.984;2023-04-19T00:49:29;101179.72;;;6.26;48.41
59391;BME280;53405;57.012;40.984;2023-04-19T00:51:57;101192.81;;;6.26;48.04
59391;BME280;53405;57.012;40.984;2023-04-19T00:54:25;101180.22;;;6.09;48.73
59391;BME280;53405;57.012;40.984;2023-04-19T00:56:53;101189.34;;;6.14;48.29
59391;BME280;53405;57.012;40.984;2023-04-19T00:59:23;101190.69;;;6.09;48.50
59391;BME280;53405;57.012;40.984;2023-04-19T01:01:51;101200.06;;;6.11;48.26
59391;BME280;53405;57.012;40.984;2023-04-19T01:04:21;101196.50;;;6.01;49.22
59391;BME280;53405;57.012;40.984;2023-04-19T01:06:49;101200.66;;;6.04;48.54
59391;BME280;53405;57.012;40.984;2023-04-19T01:09:17;101166.97;;;5.88;48.51
59391;BME280;53405;57.012;40.984;2023-04-19T01:11:45;101193.31;;;5.97;48.77
59391;BME280;53405;57.012;40.984;2023-04-19T01:14:15;101150.59;;;5.74;48.61
59391;BME280;53405;57.012;40.984;2023-04-19T01:16:46;101197.31;;;6.02;48.44
59391;BME280;53405;57.012;40.984;2023-04-19T01:19:14;101192.09;;;6.02;48.75
59391;BME280;53405;57.012;40.984;2023-04-19T01:21:43;101181.38;;;5.93;49.10
59391;BME280;53405;57.012;40.984;2023-04-19T01:24:11;101183.28;;;5.91;48.47
59391;BME280;53405;57.012;40.984;2023-04-19T01:26:40;101191.28;;;6.01;48.62
59391;BME280;53405;57.012;40.984;2023-04-19T01:29:08;101184.69;;;5.95;48.64
59391;BME280;53405;57.012;40.984;2023-04-19T01:31:37;101194.00;;;6.00;48.62
59391;BME280;53405;57.012;40.984;2023-04-19T01:34:05;101194.13;;;5.98;49.17
59391;BME280;53405;57.012;40.984;2023-04-19T01:36:33;101194.84;;;6.00;48.35
59391;BME280;53405;57.012;40.984;2023-04-19T01:39:00;101188.91;;;5.98;48.66
59391;BME280;53405;57.012;40.984;2023-04-19T01:41:28;101191.50;;;5.98;48.57
59391;BME280;53405;57.012;40.984;2023-04-19T01:43:56;101186.97;;;5.89;49.22
59391;BME280;53405;57.012;40.984;2023-04-19T01:46:23;101184.34;;;5.77;49.81
59391;BME280;53405;57.012;40.984;2023-04-19T01:48:51;101189.09;;;5.72;50.43
59391;BME280;53405;57.012;40.984;2023-04-19T01:51:20;101160.88;;;5.53;50.17
59391;BME280;53405;57.012;40.984;2023-04-19T01:53:48;101157.09;;;5.46;50.51
59391;BME280;53405;57.012;40.984;2023-04-19T01:56:22;101187.88;;;5.54;50.58
59391;BME280;53405;57.012;40.984;2023-04-19T01:58:50;101188.81;;;5.53;50.84
59391;BME280;53405;57.012;40.984;2023-04-19T02:01:18;101187.88;;;5.54;50.96
59391;BME280;53405;57.012;40.984;2023-04-19T02:03:46;101189.25;;;5.47;51.09
59391;BME280;53405;57.012;40.984;2023-04-19T02:06:14;101183.09;;;5.36;51.88
59391;BME280;53405;57.012;40.984;2023-04-19T02:08:42;101155.72;;;5.18;51.63
59391;BME280;53405;57.012;40.984;2023-04-19T02:11:11;101199.47;;;5.38;52.12
59391;BME280;53405;57.012;40.984;2023-04-19T02:13:42;101195.53;;;5.33;52.55
59391;BME280;53405;57.012;40.984;2023-04-19T02:16:11;101196.16;;;5.36;52.40
59391;BME280;53405;57.012;40.984;2023-04-19T02:18:39;101195.25;;;5.24;52.87
59391;BME280;53405;57.012;40.984;2023-04-19T02:21:10;101191.38;;;5.30;52.72
59391;BME280;53405;57.012;40.984;2023-04-19T02:23:37;101195.19;;;5.37;52.37
59391;BME280;53405;57.012;40.984;2023-04-19T02:26:05;101197.91;;;5.36;52.53
59391;BME280;53405;57.012;40.984;2023-04-19T02:28:34;101202.69;;;5.42;51.89
59391;BME280;53405;57.012;40.984;2023-04-19T02:31:05;101197.91;;;5.36;51.89
59391;BME280;53405;57.012;40.984;2023-04-19T02:33:34;101203.13;;;5.36;52.23
59391;BME280;53405;57.012;40.984;2023-04-19T02:36:03;101209.22;;;5.36;52.35
59391;BME280;53405;57.012;40.984;2023-04-19T02:38:30;101210.63;;;5.40;52.45
59391;BME280;53405;57.012;40.984;2023-04-19T02:40:58;101210.63;;;5.40;52.58
59391;BME280;53405;57.012;40.984;2023-04-19T02:43:29;101195.91;;;5.39;51.94
59391;BME280;53405;57.012;40.984;2023-04-19T02:45:57;101208.63;;;5.44;52.57
59391;BME280;53405;57.012;40.984;2023-04-19T02:48:24;101206.03;;;5.44;52.35
59391;BME280;53405;57.012;40.984;2023-04-19T02:50:53;101209.72;;;5.53;52.01
59391;BME280;53405;57.012;40.984;2023-04-19T02:53:22;101203.44;;;5.55;51.94
59391;BME280;53405;57.012;40.984;2023-04-19T02:55:58;101203.69;;;5.64;52.13
59391;BME280;53405;57.012;40.984;2023-04-19T02:58:26;101205.94;;;5.57;52.74
59391;BME280;53405;57.012;40.984;2023-04-19T03:01:05;101203.22;;;5.58;53.56
59391;BME280;53405;57.012;40.984;2023-04-19T03:03:33;101184.16;;;5.45;52.53
59391;BME280;53405;57.012;40.984;2023-04-19T03:06:01;101205.59;;;5.61;53.29
59391;BME280;53405;57.012;40.984;2023-04-19T03:08:30;101207.84;;;5.66;52.91
59391;BME280;53405;57.012;40.984;2023-04-19T03:10:59;101207.13;;;5.64;52.95
59391;BME280;53405;57.012;40.984;2023-04-19T03:13:29;101206.53;;;5.72;53.24
59391;BME280;53405;57.012;40.984;2023-04-19T03:15:57;101202.53;;;5.79;52.37
59391;BME280;53405;57.012;40.984;2023-04-19T03:18:26;101208.69;;;5.78;53.09
59391;BME280;53405;57.012;40.984;2023-04-19T03:20:55;101206.19;;;5.76;52.28
59391;BME280;53405;57.012;40.984;2023-04-19T03:23:25;101202.06;;;5.74;53.42
59391;BME280;53405;57.012;40.984;2023-04-19T03:25:54;101206.91;;;5.78;54.18
59391;BME280;53405;57.012;40.984;2023-04-19T03:28:38;101218.31;;;5.77;52.93
59391;BME280;53405;57.012;40.984;2023-04-19T03:31:24;101206.78;;;5.80;53.50
59391;BME280;53405;57.012;40.984;2023-04-19T03:33:53;101212.28;;;5.88;52.76
59391;BME280;53405;57.012;40.984;2023-04-19T03:36:28;101209.09;;;5.96;52.85
59391;BME280;53405;57.012;40.984;2023-04-19T03:38:56;101211.47;;;5.99;52.87
59391;BME280;53405;57.012;40.984;2023-04-19T03:41:25;101204.59;;;6.09;52.15
59391;BME280;53405;57.012;40.984;2023-04-19T03:44:06;101214.22;;;6.20;51.69
59391;BME280;53405;57.012;40.984;2023-04-19T03:46:35;101210.16;;;6.27;51.98
59391;BME280;53405;57.012;40.984;2023-04-19T03:49:03;101204.19;;;6.37;51.99
59391;BME280;53405;57.012;40.984;2023-04-19T03:51:31;101198.38;;;6.44;51.79
59391;BME280;53405;57.012;40.984;2023-04-19T03:53:59;101203.47;;;6.57;51.47
59391;BME280;53405;57.012;40.984;2023-04-19T03:56:28;101207.38;;;6.63;51.13
59391;BME280;53405;57.012;40.984;2023-04-19T03:58:56;101211.44;;;6.67;50.91
59391;BME280;53405;57.012;40.984;2023-04-19T04:01:25;101196.19;;;6.72;50.08
59391;BME280;53405;57.012;40.984;2023-04-19T04:03:54;101214.09;;;6.88;50.25
59391;BME280;53405;57.012;40.984;2023-04-19T04:06:23;101222.16;;;6.96;49.68
59391;BME280;53405;57.012;40.984;2023-04-19T04:08:51;101217.84;;;7.07;49.13
59391;BME280;53405;57.012;40.984;2023-04-19T04:11:18;101215.31;;;7.16;49.49
59391;BME280;53405;57.012;40.984;2023-04-19T04:13:48;101212.94;;;7.34;48.60
59391;BME280;53405;57.012;40.984;2023-04-19T04:16:24;101213.88;;;7.45;47.98
59391;BME280;53405;57.012;40.984;2023-04-19T04:18:53;101212.97;;;7.55;47.97
59391;BME280;53405;57.012;40.984;2023-04-19T04:21:24;101214.22;;;7.61;47.68
59391;BME280;53405;57.012;40.984;2023-04-19T04:23:56;101210.84;;;7.70;47.92
59391;BME280;53405;57.012;40.984;2023-04-19T04:26:36;101220.31;;;7.83;48.22
59391;BME280;53405;57.012;40.984;2023-04-19T04:29:18;101218.16;;;7.97;47.31
59391;BME280;53405;57.012;40.984;2023-04-19T04:31:46;101218.22;;;8.07;47.07
59391;BME280;53405;57.012;40.984;2023-04-19T04:34:17;101208.03;;;8.14;46.78
59391;BME280;53405;57.012;40.984;2023-04-19T04:36:50;101212.47;;;8.23;46.39
59391;BME280;53405;57.012;40.984;2023-04-19T04:39:20;101220.66;;;8.30;46.28
59391;BME280;53405;57.012;40.984;2023-04-19T04:41:48;101211.13;;;8.39;46.00
59391;BME280;53405;57.012;40.984;2023-04-19T04:44:16;101213.69;;;8.50;46.76
59391;BME280;53405;57.012;40.984;2023-04-19T04:46:45;101213.03;;;8.67;46.36
59391;BME280;53405;57.012;40.984;2023-04-19T04:49:18;101207.66;;;8.79;46.06
59391;BME280;53405;57.012;40.984;2023-04-19T04:51:46;101208.06;;;8.94;45.30
59391;BME280;53405;57.012;40.984;2023-04-19T04:54:14;101207.84;;;9.07;46.00
59391;BME280;53405;57.012;40.984;2023-04-19T04:56:43;101206.16;;;9.15;45.53
59391;BME280;53405;57.012;40.984;2023-04-19T04:59:11;101204.09;;;9.29;46.92
59391;BME280;53405;57.012;40.984;2023-04-19T05:01:43;101212.63;;;9.50;46.18
59391;BME280;53405;57.012;40.984;2023-04-19T05:04:12;101199.16;;;9.63;44.08
59391;BME280;53405;57.012;40.984;2023-04-19T05:06:41;101203.28;;;9.75;43.55
59391;BME280;53405;57.012;40.984;2023-04-19T05:09:16;101206.59;;;9.87;43.21
59391;BME280;53405;57.012;40.984;2023-04-19T05:11:45;101209.91;;;9.89;44.35
59391;BME280;53405;57.012;40.984;2023-04-19T05:14:12;101204.25;;;10.12;43.49
59391;BME280;53405;57.012;40.984;2023-04-19T05:16:42;101198.41;;;10.28;43.50
59391;BME280;53405;57.012;40.984;2023-04-19T05:19:10;101204.84;;;10.43;44.40
59391;BME280;53405;57.012;40.984;2023-04-19T05:21:44;101204.88;;;10.61;44.87
59391;BME280;53405;57.012;40.984;2023-04-19T05:24:13;101205.84;;;10.78;43.20
59391;BME280;53405;57.012;40.984;2023-04-19T05:26:41;101196.09;;;10.89;42.84
59391;BME280;53405;57.012;40.984;2023-04-19T05:29:10;101198.88;;;10.87;39.86
59391;BME280;53405;57.012;40.984;2023-04-19T05:31:50;101195.28;;;10.88;38.99
59391;BME280;53405;57.012;40.984;2023-04-19T05:34:24;101203.84;;;10.90;38.86
59391;BME280;53405;57.012;40.984;2023-04-19T05:36:54;101203.84;;;10.90;38.68
59391;BME280;53405;57.012;40.984;2023-04-19T05:39:22;101210.84;;;10.99;38.31
59391;BME280;53405;57.012;40.984;2023-04-19T05:41:51;101213.75;;;11.14;39.86
59391;BME280;53405;57.012;40.984;2023-04-19T05:44:19;101212.03;;;11.23;39.85
59391;BME280;53405;57.012;40.984;2023-04-19T05:46:47;101216.75;;;11.37;41.35
59391;BME280;53405;57.012;40.984;2023-04-19T05:49:23;101211.97;;;11.59;40.95
59391;BME280;53405;57.012;40.984;2023-04-19T05:52:14;101205.25;;;11.65;40.98
59391;BME280;53405;57.012;40.984;2023-04-19T05:54:53;101206.47;;;11.79;38.77
59391;BME280;53405;57.012;40.984;2023-04-19T05:57:21;101212.56;;;11.79;37.03
59391;BME280;53405;57.012;40.984;2023-04-19T05:59:49;101213.78;;;11.85;38.09
59391;BME280;53405;57.012;40.984;2023-04-19T06:02:21;101207.31;;;11.79;36.17
59391;BME280;53405;57.012;40.984;2023-04-19T06:04:49;101220.56;;;11.87;36.72
59391;BME280;53405;57.012;40.984;2023-04-19T06:07:17;101203.47;;;12.00;36.48
59391;BME280;53405;57.012;40.984;2023-04-19T06:09:53;101216.94;;;12.15;36.34
59391;BME280;53405;57.012;40.984;2023-04-19T06:12:21;101201.41;;;12.11;37.20
59391;BME280;53405;57.012;40.984;2023-04-19T06:14:48;101212.91;;;12.37;37.40
59391;BME280;53405;57.012;40.984;2023-04-19T06:17:18;101215.72;;;12.52;38.65
59391;BME280;53405;57.012;40.984;2023-04-19T06:19:51;101183.53;;;12.48;37.52
59391;BME280;53405;57.012;40.984;2023-04-19T06:22:19;101210.50;;;12.68;36.64
59391;BME280;53405;57.012;40.984;2023-04-19T06:24:47;101196.97;;;12.71;36.50
59391;BME280;53405;57.012;40.984;2023-04-19T06:27:15;101206.25;;;13.00;36.91
59391;BME280;53405;57.012;40.984;2023-04-19T06:29:43;101214.03;;;13.01;35.17
59391;BME280;53405;57.012;40.984;2023-04-19T06:32:11;101222.97;;;13.09;35.11
59391;BME280;53405;57.012;40.984;2023-04-19T06:34:39;101222.44;;;13.05;34.00
59391;BME280;53405;57.012;40.984;2023-04-19T06:37:07;101211.72;;;13.07;34.48
59391;BME280;53405;57.012;40.984;2023-04-19T06:39:34;101211.88;;;13.05;33.14
59391;BME280;53405;57.012;40.984;2023-04-19T06:42:02;101187.72;;;12.75;33.45
59391;BME280;53405;57.012;40.984;2023-04-19T06:44:30;101218.97;;;12.96;33.56
59391;BME280;53405;57.012;40.984;2023-04-19T06:46:58;101217.66;;;13.00;32.76
59391;BME280;53405;57.012;40.984;2023-04-19T06:49:26;101212.38;;;13.09;34.00
59391;BME280;53405;57.012;40.984;2023-04-19T06:51:53;101212.22;;;13.27;33.77
59391;BME280;53405;57.012;40.984;2023-04-19T06:54:21;101220.53;;;13.40;34.18
59391;BME280;53405;57.012;40.984;2023-04-19T06:56:50;101212.25;;;13.51;33.90
59391;BME280;53405;57.012;40.984;2023-04-19T06:59:19;101200.81;;;13.59;33.24
59391;BME280;53405;57.012;40.984;2023-04-19T07:01:47;101204.63;;;13.57;31.96
59391;BME280;53405;57.012;40.984;2023-04-19T07:04:16;101202.59;;;13.75;32.54
59391;BME280;53405;57.012;40.984;2023-04-19T07:06:47;101201.59;;;13.68;30.73
59391;BME280;53405;57.012;40.984;2023-04-19T07:09:15;101199.44;;;13.71;30.55
59391;BME280;53405;57.012;40.984;2023-04-19T07:11:43;101201.72;;;13.91;32.52
59391;BME280;53405;57.012;40.984;2023-04-19T07:14:11;101201.03;;;13.97;30.24
59391;BME280;53405;57.012;40.984;2023-04-19T07:16:38;101200.19;;;14.05;31.43
59391;BME280;53405;57.012;40.984;2023-04-19T07:19:06;101193.25;;;14.04;30.77
59391;BME280;53405;57.012;40.984;2023-04-19T07:21:34;101192.22;;;14.13;32.48
59391;BME280;53405;57.012;40.984;2023-04-19T07:24:02;101164.72;;;14.14;30.65
59391;BME280;53405;57.012;40.984;2023-04-19T07:26:30;101197.81;;;14.50;29.30
59391;BME280;53405;57.012;40.984;2023-04-19T07:28:58;101189.53;;;14.53;29.84
59391;BME280;53405;57.012;40.984;2023-04-19T07:31:27;101196.00;;;14.50;29.45
59391;BME280;53405;57.012;40.984;2023-04-19T07:33:55;101196.50;;;14.45;30.64
59391;BME280;53405;57.012;40.984;2023-04-19T07:36:22;101201.44;;;14.57;29.99
59391;BME280;53405;57.012;40.984;2023-04-19T07:38:50;101203.56;;;14.61;29.32
59391;BME280;53405;57.012;40.984;2023-04-19T07:41:18;101200.13;;;14.53;28.61
59391;BME280;53405;57.012;40.984;2023-04-19T07:43:45;101177.78;;;14.47;29.65
59391;BME280;53405;57.012;40.984;2023-04-19T07:46:14;101201.59;;;14.87;30.12
59391;BME280;53405;57.012;40.984;2023-04-19T07:48:45;101197.41;;;14.92;29.50
59391;BME280;53405;57.012;40.984;2023-04-19T07:51:38;101198.53;;;14.98;27.98
59391;BME280;53405;57.012;40.984;2023-04-19T07:54:16;101192.81;;;14.86;27.93
59391;BME280;53405;57.012;40.984;2023-04-19T07:56:46;101185.22;;;14.52;28.22
59391;BME280;53405;57.012;40.984;2023-04-19T07:59:14;101162.81;;;14.31;28.77
59391;BME280;53405;57.012;40.984;2023-04-19T08:01:42;101185.69;;;14.63;31.14
59391;BME280;53405;57.012;40.984;2023-04-19T08:04:10;101188.00;;;14.67;27.72
59391;BME280;53405;57.012;40.984;2023-04-19T08:06:38;101188.56;;;14.77;27.57
59391;BME280;53405;57.012;40.984;2023-04-19T08:09:06;101183.03;;;15.10;29.80
59391;BME280;53405;57.012;40.984;2023-04-19T08:11:34;101190.25;;;15.54;29.64
59391;BME280;53405;57.012;40.984;2023-04-19T08:14:03;101113.19;;;15.47;28.43
59391;BME280;53405;57.012;40.984;2023-04-19T08:16:35;101183.66;;;16.24;27.41
59391;BME280;53405;57.012;40.984;2023-04-19T08:19:06;101182.81;;;16.39;27.35
59391;BME280;53405;57.012;40.984;2023-04-19T08:21:33;101186.94;;;16.41;28.10
59391;BME280;53405;57.012;40.984;2023-04-19T08:24:07;101182.00;;;16.60;26.26
59391;BME280;53405;57.012;40.984;2023-04-19T08:26:58;101174.16;;;16.15;25.14
59391;BME280;53405;57.012;40.984;2023-04-19T08:29:30;101162.03;;;16.28;27.09
59391;BME280;53405;57.012;40.984;2023-04-19T08:31:59;101171.88;;;17.13;25.69
59391;BME280;53405;57.012;40.984;2023-04-19T08:34:28;101176.09;;;17.58;24.73
59391;BME280;53405;57.012;40.984;2023-04-19T08:36:55;101173.00;;;17.89;24.60
59391;BME280;53405;57.012;40.984;2023-04-19T08:39:32;101171.25;;;17.68;24.20
59391;BME280;53405;57.012;40.984;2023-04-19T08:42:06;101175.69;;;17.04;25.64
59391;BME280;53405;57.012;40.984;2023-04-19T08:44:38;101163.22;;;17.05;26.17
59391;BME280;53405;57.012;40.984;2023-04-19T08:47:11;101160.25;;;17.49;23.78
59391;BME280;53405;57.012;40.984;2023-04-19T08:49:44;101167.28;;;17.92;24.28
59391;BME280;53405;57.012;40.984;2023-04-19T08:52:12;101162.56;;;18.49;23.45
59391;BME280;53405;57.012;40.984;2023-04-19T08:54:41;101161.97;;;18.54;23.87
59391;BME280;53405;57.012;40.984;2023-04-19T08:57:09;101158.75;;;18.85;24.45
59391;BME280;53405;57.012;40.984;2023-04-19T08:59:39;101153.00;;;18.88;23.08
59391;BME280;53405;57.012;40.984;2023-04-19T09:02:07;101153.25;;;18.12;23.29
59391;BME280;53405;57.012;40.984;2023-04-19T09:04:35;101147.03;;;17.63;25.42
59391;BME280;53405;57.012;40.984;2023-04-19T09:07:03;101150.78;;;18.10;24.41
59391;BME280;53405;57.012;40.984;2023-04-19T09:09:31;101143.69;;;18.51;23.97
59391;BME280;53405;57.012;40.984;2023-04-19T09:12:14;101134.88;;;18.44;22.84
59391;BME280;53405;57.012;40.984;2023-04-19T09:14:46;101152.81;;;18.08;23.26
59391;BME280;53405;57.012;40.984;2023-04-19T09:17:17;101162.22;;;17.34;23.85
59391;BME280;53405;57.012;40.984;2023-04-19T09:19:48;101149.94;;;17.05;24.44
59391;BME280;53405;57.012;40.984;2023-04-19T09:22:17;101144.53;;;17.55;24.58
59391;BME280;53405;57.012;40.984;2023-04-19T09:24:45;101145.00;;;18.06;25.13
59391;BME280;53405;57.012;40.984;2023-04-19T09:27:33;101139.47;;;18.08;23.85
59391;BME280;53405;57.012;40.984;2023-04-19T09:30:04;101143.06;;;17.87;24.80
59391;BME280;53405;57.012;40.984;2023-04-19T09:32:47;101042.97;;;18.26;23.42
59391;BME280;53405;57.012;40.984;2023-04-19T09:35:15;101135.91;;;19.49;21.94
59391;BME280;53405;57.012;40.984;2023-04-19T09:37:57;101130.59;;;18.63;23.41
59391;BME280;53405;57.012;40.984;2023-04-19T09:40:30;101144.53;;;17.26;24.20
59391;BME280;53405;57.012;40.984;2023-04-19T09:42:58;101136.94;;;16.52;25.17
59391;BME280;53405;57.012;40.984;2023-04-19T09:45:41;101132.44;;;16.74;25.29
59391;BME280;53405;57.012;40.984;2023-04-19T09:48:10;101129.06;;;17.08;25.02
59391;BME280;53405;57.012;40.984;2023-04-19T09:50:51;101137.78;;;16.95;25.18
59391;BME280;53405;57.012;40.984;2023-04-19T09:53:22;101142.88;;;16.75;25.37
59391;BME280;53405;57.012;40.984;2023-04-19T09:55:51;101129.44;;;17.33;24.75
59391;BME280;53405;57.012;40.984;2023-04-19T09:58:26;101136.28;;;18.46;24.01
59391;BME280;53405;57.012;40.984;2023-04-19T10:00:56;101139.97;;;19.79;22.55
59391;BME280;53405;57.012;40.984;2023-04-19T10:03:29;101141.91;;;19.31;22.22
59391;BME280;53405;57.012;40.984;2023-04-19T10:05:58;101101.78;;;17.63;23.87
59391;BME280;53405;57.012;40.984;2023-04-19T10:08:28;101113.25;;;16.57;24.56
59391;BME280;53405;57.012;40.984;2023-04-19T10:10:56;101141.94;;;16.83;24.83
59391;BME280;53405;57.012;40.984;2023-04-19T10:13:25;101139.28;;;17.68;24.11
59391;BME280;53405;57.012;40.984;2023-04-19T10:15:54;101132.03;;;18.78;23.23
59391;BME280;53405;57.012;40.984;2023-04-19T10:18:25;101129.53;;;19.44;22.45
59391;BME280;53405;57.012;40.984;2023-04-19T10:21:04;101128.72;;;20.15;21.89
59391;BME280;53405;57.012;40.984;2023-04-19T10:23:33;101125.31;;;20.90;20.37
59391;BME280;53405;57.012;40.984;2023-04-19T10:26:02;101124.88;;;20.68;20.70
59391;BME280;53405;57.012;40.984;2023-04-19T10:28:30;101107.66;;;20.26;21.21
59391;BME280;53405;57.012;40.984;2023-04-19T10:31:02;101109.50;;;20.57;20.76
59391;BME280;53405;57.012;40.984;2023-04-19T10:33:34;101116.78;;;20.50;20.67
59391;BME280;53405;57.012;40.984;2023-04-19T10:36:06;101110.03;;;19.43;21.85
59391;BME280;53405;57.012;40.984;2023-04-19T10:39:00;101116.41;;;18.49;22.98
59391;BME280;53405;57.012;40.984;2023-04-19T10:41:55;101112.53;;;18.51;23.32
59391;BME280;53405;57.012;40.984;2023-04-19T10:44:24;101116.41;;;18.42;23.05
59391;BME280;53405;57.012;40.984;2023-04-19T10:46:51;101099.16;;;17.76;24.20
59391;BME280;53405;57.012;40.984;2023-04-19T10:49:22;101105.72;;;17.39;24.50
59391;BME280;53405;57.012;40.984;2023-04-19T10:51:50;101105.25;;;17.28;24.88
59391;BME280;53405;57.012;40.984;2023-04-19T10:54:31;101075.06;;;17.14;24.51
59391;BME280;53405;57.012;40.984;2023-04-19T10:57:05;101104.72;;;17.11;24.71
59391;BME280;53405;57.012;40.984;2023-04-19T10:59:35;101104.59;;;16.70;25.22
59391;BME280;53405;57.012;40.984;2023-04-19T11:02:25;101101.94;;;16.48;25.46
59391;BME280;53405;57.012;40.984;2023-04-19T11:07:23;101098.38;;;17.41;24.97
59391;BME280;53405;57.012;40.984;2023-04-19T11:10:08;101092.16;;;17.75;24.35
59391;BME280;53405;57.012;40.984;2023-04-19T11:12:41;101096.69;;;17.33;24.16
59391;BME280;53405;57.012;40.984;2023-04-19T11:15:08;101096.00;;;17.24;24.77
59391;BME280;53405;57.012;40.984;2023-04-19T11:17:37;101090.13;;;17.01;25.09
59391;BME280;53405;57.012;40.984;2023-04-19T11:20:07;101084.84;;;17.07;24.93
59391;BME280;53405;57.012;40.984;2023-04-19T11:22:43;101080.88;;;17.66;24.91
59391;BME280;53405;57.012;40.984;2023-04-19T11:25:20;101078.66;;;18.52;23.79
59391;BME280;53405;57.012;40.984;2023-04-19T11:27:52;101082.78;;;19.01;24.17
59391;BME280;53405;57.012;40.984;2023-04-19T11:30:30;101083.13;;;20.67;22.00
59391;BME280;53405;57.012;40.984;2023-04-19T11:32:59;101071.09;;;22.06;20.17
59391;BME280;53405;57.012;40.984;2023-04-19T11:35:28;101077.03;;;22.38;19.74
59391;BME280;53405;57.012;40.984;2023-04-19T11:37:58;101068.34;;;21.82;20.16
59391;BME280;53405;57.012;40.984;2023-04-19T11:40:27;101067.06;;;20.92;21.91
59391;BME280;53405;57.012;40.984;2023-04-19T11:43:00;101065.91;;;19.86;22.66
59391;BME280;53405;57.012;40.984;2023-04-19T11:45:30;101058.75;;;18.34;24.59
59391;BME280;53405;57.012;40.984;2023-04-19T11:48:02;101069.41;;;17.66;25.58
59391;BME280;53405;57.012;40.984;2023-04-19T11:50:40;101036.44;;;16.90;26.64
59391;BME280;53405;57.012;40.984;2023-04-19T11:53:14;101069.38;;;16.89;26.80
59391;BME280;53405;57.012;40.984;2023-04-19T11:55:44;101068.84;;;16.79;27.26
59391;BME280;53405;57.012;40.984;2023-04-19T11:58:26;101059.94;;;16.87;27.42
59391;BME280;53405;57.012;40.984;2023-04-19T12:01:04;101061.69;;;16.79;27.29
59391;BME280;53405;57.012;40.984;2023-04-19T12:03:54;101054.88;;;16.70;27.57
59391;BME280;53405;57.012;40.984;2023-04-19T12:08:53;101054.59;;;16.87;28.01
59391;BME280;53405;57.012;40.984;2023-04-19T12:11:23;101055.31;;;17.79;26.76
59391;BME280;53405;57.012;40.984;2023-04-19T12:14:13;101067.00;;;18.80;25.69
59391;BME280;53405;57.012;40.984;2023-04-19T12:16:41;101056.44;;;19.38;24.82
59391;BME280;53405;57.012;40.984;2023-04-19T12:19:17;101018.72;;;19.01;24.79
59391;BME280;53405;57.012;40.984;2023-04-19T12:21:46;101043.59;;;19.02;25.05
59391;BME280;53405;57.012;40.984;2023-04-19T12:29:15;101057.91;;;19.86;24.05
59391;BME280;53405;57.012;40.984;2023-04-19T12:31:44;101056.19;;;19.46;24.28
59391;BME280;53405;57.012;40.984;2023-04-19T12:34:11;101054.66;;;19.05;24.92
59391;BME280;53405;57.012;40.984;2023-04-19T12:36:39;101049.34;;;18.92;25.31
59391;BME280;53405;57.012;40.984;2023-04-19T12:39:07;101050.19;;;18.86;25.47
59391;BME280;53405;57.012;40.984;2023-04-19T12:41:35;101020.84;;;18.86;25.45
59391;BME280;53405;57.012;40.984;2023-04-19T12:44:03;101007.09;;;19.41;25.21
59391;BME280;53405;57.012;40.984;2023-04-19T12:46:30;101041.38;;;19.57;24.21
59391;BME280;53405;57.012;40.984;2023-04-19T12:48:58;101042.47;;;19.36;24.83
59391;BME280;53405;57.012;40.984;2023-04-19T12:51:26;101028.00;;;18.99;24.67
59391;BME280;53405;57.012;40.984;2023-04-19T12:53:54;101035.00;;;18.86;24.63
59391;BME280;53405;57.012;40.984;2023-04-19T12:56:22;101029.84;;;18.51;25.57
59391;BME280;53405;57.012;40.984;2023-04-19T12:58:50;101034.16;;;18.59;25.30
59391;BME280;53405;57.012;40.984;2023-04-19T13:01:18;101036.81;;;18.72;25.14
59391;BME280;53405;57.012;40.984;2023-04-19T13:03:45;101024.06;;;18.74;24.95
59391;BME280;53405;57.012;40.984;2023-04-19T13:06:13;101022.25;;;18.55;25.13
59391;BME280;53405;57.012;40.984;2023-04-19T13:08:43;101020.00;;;18.72;24.69